createdAt,value
2022-07-25T00:03:02.769Z,79.60
2022-07-25T00:08:05.019Z,78.80
2022-07-25T00:13:06.869Z,78.80
2022-07-25T00:18:08.723Z,79.30
2022-07-25T00:23:10.586Z,78.10
2022-07-25T00:28:12.533Z,81.80
2022-07-25T00:33:14.373Z,82.40
2022-07-25T00:38:16.230Z,82.50
2022-07-25T00:43:18.062Z,81.20
2022-07-25T00:48:19.956Z,80.10
2022-07-25T00:53:22.495Z,80.70
2022-07-25T00:58:24.989Z,81.60
2022-07-25T01:03:26.999Z,81.80
2022-07-25T01:08:29.494Z,85.30
2022-07-25T01:13:34.099Z,84.20
2022-07-25T01:18:37.045Z,82.10
2022-07-25T01:23:38.894Z,81.40
2022-07-25T01:28:40.734Z,84.80
2022-07-25T01:33:42.567Z,83.30
2022-07-25T01:38:44.420Z,86.00
2022-07-25T01:43:46.242Z,84.30
2022-07-25T01:48:48.229Z,83.20
2022-07-25T01:53:50.142Z,85.40
2022-07-25T01:58:52.152Z,86.70
2022-07-25T02:03:53.987Z,85.40
2022-07-25T02:08:55.837Z,86.10
2022-07-25T02:13:57.665Z,87.90
2022-07-25T02:18:59.531Z,89.90
2022-07-25T02:24:01.433Z,90.10
2022-07-25T02:29:03.352Z,90.50
2022-07-25T02:34:05.721Z,91.50
2022-07-25T02:39:07.831Z,91.00
2022-07-25T02:44:10.094Z,91.30
2022-07-25T02:49:12.282Z,91.70
2022-07-25T02:54:14.653Z,91.40
2022-07-25T02:59:16.890Z,91.40
2022-07-25T03:04:18.786Z,89.50
2022-07-25T03:09:21.807Z,91.10
2022-07-25T03:14:23.676Z,91.90
2022-07-25T03:19:25.508Z,89.60
2022-07-25T03:24:27.403Z,91.20
2022-07-25T03:29:29.397Z,92.00
2022-07-25T03:34:31.290Z,91.80
2022-07-25T03:39:33.311Z,92.10
2022-07-25T03:44:35.771Z,92.20
2022-07-25T03:49:38.146Z,91.10
2022-07-25T03:54:40.347Z,91.80
2022-07-25T03:59:42.351Z,94.10
2022-07-25T04:04:44.173Z,93.60
2022-07-25T04:09:46.010Z,92.50
2022-07-25T04:14:47.920Z,93.00
2022-07-25T04:19:49.863Z,93.40
2022-07-25T04:24:51.686Z,93.00
2022-07-25T04:29:53.603Z,93.60
2022-07-25T04:34:55.511Z,93.00
2022-07-25T04:39:57.376Z,93.30
2022-07-25T04:44:59.248Z,93.20
2022-07-25T04:50:01.244Z,93.70
2022-07-25T04:55:04.173Z,91.50
2022-07-25T05:00:09.381Z,91.00
2022-07-25T05:05:20.870Z,91.10
2022-07-25T05:10:23.176Z,90.00
2022-07-25T05:15:25.275Z,89.30
2022-07-25T05:20:27.515Z,85.40
2022-07-25T05:25:29.480Z,83.20
2022-07-25T05:30:35.296Z,79.70
2022-07-25T05:35:39.826Z,77.40
2022-07-25T05:40:41.693Z,75.90
2022-07-25T05:45:44.194Z,73.50
2022-07-25T05:50:46.197Z,70.80
2022-07-25T05:55:48.045Z,71.00
2022-07-25T06:00:51.090Z,69.40
2022-07-25T06:05:55.194Z,68.80
2022-07-25T06:10:58.827Z,67.90
2022-07-25T06:16:00.834Z,66.20
2022-07-25T06:21:03.428Z,66.50
2022-07-25T06:26:09.147Z,65.00
2022-07-25T06:31:11.183Z,61.90
2022-07-25T06:36:13.077Z,61.00
2022-07-25T06:41:15.882Z,60.60
2022-07-25T06:46:17.727Z,59.10
2022-07-25T06:51:20.873Z,55.50
2022-07-25T06:56:23.086Z,52.20
2022-07-25T07:01:25.307Z,51.90
2022-07-25T07:06:27.283Z,52.30
2022-07-25T07:11:29.132Z,51.70
2022-07-25T07:16:31.537Z,51.70
2022-07-25T07:21:33.442Z,50.90
2022-07-25T07:26:35.351Z,50.70
2022-07-25T07:31:37.402Z,49.70
2022-07-25T07:36:39.394Z,48.60
2022-07-25T07:41:41.242Z,48.80
2022-07-25T07:46:43.249Z,49.10
2022-07-25T07:51:45.150Z,47.80
2022-07-25T07:56:47.048Z,47.10
2022-07-25T08:01:49.225Z,47.30
2022-07-25T08:06:51.082Z,46.20
2022-07-25T08:11:53.206Z,46.20
2022-07-25T08:16:57.385Z,45.70
2022-07-25T08:21:59.230Z,45.50
2022-07-25T08:27:01.074Z,45.00
2022-07-25T08:32:03.508Z,45.20
2022-07-25T08:37:05.328Z,44.60
2022-07-25T08:42:11.133Z,44.50
2022-07-25T08:47:15.742Z,44.30
2022-07-25T08:52:18.815Z,43.30
2022-07-25T08:57:21.811Z,43.60
2022-07-25T09:02:23.973Z,43.40
2022-07-25T09:07:33.844Z,43.90
2022-07-25T09:12:35.850Z,43.40
2022-07-25T09:17:50.511Z,44.10
2022-07-25T09:22:52.475Z,44.50
2022-07-25T09:27:54.358Z,43.40
2022-07-25T09:33:01.047Z,44.30
2022-07-25T09:38:10.549Z,43.50
2022-07-25T09:43:12.421Z,44.40
2022-07-25T09:48:15.554Z,44.10
2022-07-25T09:53:17.802Z,43.50
2022-07-25T09:58:19.648Z,44.00
2022-07-25T10:03:38.583Z,43.70
2022-07-25T10:08:41.016Z,44.10
2022-07-25T10:13:42.843Z,44.70
2022-07-25T10:18:51.027Z,43.80
2022-07-25T10:24:07.067Z,44.50
2022-07-25T10:29:10.426Z,44.60
2022-07-25T10:34:14.173Z,44.80
2022-07-25T10:39:18.181Z,44.60
2022-07-25T10:44:20.563Z,43.30
2022-07-25T10:49:31.948Z,43.80
2022-07-25T10:54:36.287Z,44.00
2022-07-25T10:59:39.558Z,44.30
2022-07-25T11:05:00.572Z,44.50
2022-07-25T11:10:04.587Z,45.40
2022-07-25T11:15:07.827Z,45.30
2022-07-25T11:20:11.574Z,45.00
2022-07-25T11:25:14.416Z,45.90
2022-07-25T11:30:19.937Z,45.30
2022-07-25T11:35:25.146Z,45.40
2022-07-25T11:40:27.433Z,46.80
2022-07-25T11:45:33.515Z,46.30
2022-07-25T11:50:39.108Z,46.60
2022-07-25T11:55:42.457Z,46.20
2022-07-25T12:00:49.964Z,46.80
2022-07-25T12:05:51.892Z,46.80
2022-07-25T12:10:55.667Z,46.00
2022-07-25T12:15:59.056Z,46.40
2022-07-25T12:21:00.895Z,46.90
2022-07-25T12:26:02.775Z,47.00
2022-07-25T12:31:04.887Z,47.10
2022-07-25T12:36:08.685Z,46.10
2022-07-25T12:41:14.582Z,46.60
2022-07-25T12:46:19.571Z,46.40
2022-07-25T12:51:21.474Z,46.40
2022-07-25T12:56:23.282Z,47.00
2022-07-25T13:01:25.179Z,46.80
2022-07-25T13:06:27.315Z,46.90
2022-07-25T13:11:29.159Z,47.30
2022-07-25T13:16:31.243Z,46.80
2022-07-25T13:21:45.536Z,46.70
2022-07-25T13:26:47.445Z,46.40
2022-07-25T13:31:49.342Z,46.50
2022-07-25T13:36:51.343Z,45.90
2022-07-25T13:41:53.384Z,45.90
2022-07-25T13:46:55.262Z,46.60
2022-07-25T13:51:57.095Z,45.80
2022-07-25T13:56:59.157Z,46.10
2022-07-25T14:02:02.230Z,46.70
2022-07-25T14:07:04.502Z,47.10
2022-07-25T14:12:06.574Z,46.30
2022-07-25T14:17:08.479Z,46.80
2022-07-25T14:22:10.340Z,46.80
2022-07-25T14:27:12.931Z,46.40
2022-07-25T14:32:14.843Z,46.90
2022-07-25T14:37:16.847Z,46.80
2022-07-25T14:42:19.482Z,47.10
2022-07-25T14:47:21.988Z,48.00
2022-07-25T14:52:24.763Z,46.80
2022-07-25T14:57:26.641Z,46.90
2022-07-25T15:02:28.704Z,47.00
2022-07-25T15:07:33.822Z,47.50
2022-07-25T15:12:35.760Z,47.50
2022-07-25T15:17:38.854Z,47.30
2022-07-25T15:22:40.707Z,47.50
2022-07-25T15:27:42.548Z,47.40
2022-07-25T15:32:45.755Z,47.90
2022-07-25T15:37:47.852Z,47.80
2022-07-25T15:42:49.759Z,47.60
2022-07-25T15:47:51.948Z,48.20
2022-07-25T15:52:53.850Z,47.80
2022-07-25T15:57:55.702Z,48.40
2022-07-25T16:02:58.166Z,48.50
2022-07-25T16:08:03.458Z,48.60
2022-07-25T16:13:05.454Z,48.80
2022-07-25T16:18:07.518Z,48.70
2022-07-25T16:23:09.435Z,49.10
2022-07-25T16:28:11.311Z,49.20
2022-07-25T16:33:13.293Z,49.50
2022-07-25T16:38:15.378Z,49.70
2022-07-25T16:43:17.270Z,49.60
2022-07-25T16:48:19.245Z,50.00
2022-07-25T16:53:21.216Z,50.50
2022-07-25T16:58:23.082Z,50.30
2022-07-25T17:03:25.020Z,50.70
2022-07-25T17:08:27.758Z,51.10
2022-07-25T17:13:29.622Z,50.70
2022-07-25T17:18:31.671Z,50.50
2022-07-25T17:23:33.638Z,50.70
2022-07-25T17:28:35.971Z,50.90
2022-07-25T17:33:37.982Z,51.20
2022-07-25T17:38:39.967Z,51.30
2022-07-25T17:43:42.058Z,51.40
2022-07-25T17:48:44.351Z,51.80
2022-07-25T17:53:47.373Z,52.30
2022-07-25T17:58:49.342Z,52.70
2022-07-25T18:03:51.316Z,53.20
2022-07-25T18:08:53.320Z,53.60
2022-07-25T18:13:55.158Z,54.00
2022-07-25T18:18:57.058Z,54.40
2022-07-25T18:23:59.068Z,54.90
2022-07-25T18:29:00.950Z,55.40
2022-07-25T18:34:04.010Z,55.80
2022-07-25T18:39:06.315Z,56.10
2022-07-25T18:44:08.747Z,56.80
2022-07-25T18:49:10.918Z,57.10
2022-07-25T18:54:12.856Z,57.80
2022-07-25T18:59:15.685Z,58.70
2022-07-25T19:04:19.014Z,58.40
2022-07-25T19:09:20.893Z,59.40
2022-07-25T19:14:27.324Z,59.30
2022-07-25T19:19:29.854Z,60.40
2022-07-25T19:24:31.679Z,60.20
2022-07-25T19:29:33.617Z,61.40
2022-07-25T19:34:35.514Z,61.70
2022-07-25T19:39:37.461Z,62.50
2022-07-25T19:44:39.376Z,62.20
2022-07-25T19:49:41.302Z,62.70
2022-07-25T19:54:43.309Z,63.30
2022-07-25T19:59:45.274Z,64.00
2022-07-25T20:04:47.130Z,63.80
2022-07-25T20:09:49.156Z,64.40
2022-07-25T20:14:51.637Z,65.60
2022-07-25T20:19:53.755Z,66.40
2022-07-25T20:24:55.709Z,65.20
2022-07-25T20:29:57.571Z,66.00
2022-07-25T20:34:59.411Z,65.80
2022-07-25T20:40:02.319Z,67.10
2022-07-25T20:45:06.105Z,67.40
2022-07-25T20:50:09.583Z,68.60
2022-07-25T20:55:11.514Z,69.90
2022-07-25T21:00:14.137Z,69.10
2022-07-25T21:05:17.160Z,69.50
2022-07-25T21:10:19.562Z,69.80
2022-07-25T21:15:21.471Z,72.80
2022-07-25T21:20:23.384Z,73.50
2022-07-25T21:25:25.342Z,74.40
2022-07-25T21:30:27.303Z,75.20
2022-07-25T21:35:29.131Z,73.60
2022-07-25T21:40:31.893Z,79.40
2022-07-25T21:45:33.769Z,78.70
2022-07-25T21:50:42.286Z,77.70
2022-07-25T21:55:45.669Z,79.10
2022-07-25T22:00:47.538Z,77.90
2022-07-25T22:05:49.514Z,81.30
2022-07-25T22:10:52.101Z,81.40
2022-07-25T22:15:53.975Z,82.40
2022-07-25T22:20:55.910Z,81.00
2022-07-25T22:25:57.747Z,81.80
2022-07-25T22:31:00.522Z,86.20
2022-07-25T22:36:02.555Z,86.60
2022-07-25T22:41:04.753Z,85.60
2022-07-25T22:46:06.853Z,86.60
2022-07-25T22:51:08.806Z,88.50
2022-07-25T22:56:11.233Z,89.70
2022-07-25T23:01:13.083Z,90.10
2022-07-25T23:06:15.044Z,89.30
2022-07-25T23:11:17.361Z,91.10
2022-07-25T23:16:19.391Z,92.30
2022-07-25T23:21:21.678Z,91.20
2022-07-25T23:26:23.510Z,92.60
2022-07-25T23:31:25.401Z,91.70
2022-07-25T23:36:27.293Z,94.90
2022-07-25T23:41:29.298Z,95.90
2022-07-25T23:46:31.348Z,95.60
2022-07-25T23:51:33.402Z,94.40
2022-07-25T23:56:35.293Z,95.80
